sensor_id;sensor_type;location;lat;lon;timestamp;pressure;altitude;pressure_sealevel;temperature;humidity
9325;BME280;4701;51.566;6.776;2023-04-23T07:03:40;100381.03;;;10.56;98.32
9325;BME280;4701;51.566;6.776;2023-04-23T07:06:43;100379.66;;;10.63;98.73
9325;BME280;4701;51.566;6.776;2023-04-23T07:09:48;100368.22;;;10.72;99.14
9325;BME280;4701;51.566;6.776;2023-04-23T07:12:50;100369.25;;;10.81;99.67
9325;BME280;4701;51.566;6.776;2023-04-23T07:15:51;100374.97;;;10.89;99.81
9325;BME280;4701;51.566;6.776;2023-04-23T07:18:55;100366.19;;;10.97;99.78
9325;BME280;4701;51.566;6.776;2023-04-23T07:21:56;100358.56;;;11.05;100.00
9325;BME280;4701;51.566;6.776;2023-04-23T07:24:58;100361.53;;;11.13;99.66
9325;BME280;4701;51.566;6.776;2023-04-23T07:28:00;100351.13;;;11.20;99.78
9325;BME280;4701;51.566;6.776;2023-04-23T07:31:02;100352.44;;;11.28;99.24
9325;BME280;4701;51.566;6.776;2023-04-23T07:34:05;100350.22;;;11.35;98.93
9325;BME280;4701;51.566;6.776;2023-04-23T07:37:07;100343.34;;;11.43;98.73
9325;BME280;4701;51.566;6.776;2023-04-23T07:40:09;100338.13;;;11.51;98.47
9325;BME280;4701;51.566;6.776;2023-04-23T07:43:11;100340.78;;;11.61;98.27
9325;BME280;4701;51.566;6.776;2023-04-23T07:46:14;100342.09;;;11.69;97.85
9325;BME280;4701;51.566;6.776;2023-04-23T07:49:17;100339.34;;;11.79;97.38
9325;BME280;4701;51.566;6.776;2023-04-23T07:52:19;100329.72;;;11.87;97.00
9325;BME280;4701;51.566;6.776;2023-04-23T07:55:21;100347.66;;;11.98;96.22
9325;BME280;4701;51.566;6.776;2023-04-23T07:58:23;100342.69;;;12.05;95.76
9325;BME280;4701;51.566;6.776;2023-04-23T08:01:25;100340.44;;;12.12;94.86
9325;BME280;4701;51.566;6.776;2023-04-23T08:04:28;100346.09;;;12.21;94.47
9325;BME280;4701;51.566;6.776;2023-04-23T08:07:30;100329.91;;;12.29;93.89
9325;BME280;4701;51.566;6.776;2023-04-23T08:10:32;100336.38;;;12.38;93.33
9325;BME280;4701;51.566;6.776;2023-04-23T08:13:34;100344.22;;;12.45;92.71
9325;BME280;4701;51.566;6.776;2023-04-23T08:16:36;100336.22;;;12.54;92.24
9325;BME280;4701;51.566;6.776;2023-04-23T08:19:39;100332.84;;;12.62;91.34
9325;BME280;4701;51.566;6.776;2023-04-23T08:22:41;100321.56;;;12.68;91.11
9325;BME280;4701;51.566;6.776;2023-04-23T08:25:43;100320.13;;;12.76;90.87
9325;BME280;4701;51.566;6.776;2023-04-23T08:28:45;100314.00;;;12.84;90.70
9325;BME280;4701;51.566;6.776;2023-04-23T08:31:47;100323.19;;;12.93;90.50
9325;BME280;4701;51.566;6.776;2023-04-23T08:34:50;100321.75;;;13.01;90.63
9325;BME280;4701;51.566;6.776;2023-04-23T08:37:52;100320.78;;;13.10;90.08
9325;BME280;4701;51.566;6.776;2023-04-23T08:40:56;100314.69;;;13.18;90.02
9325;BME280;4701;51.566;6.776;2023-04-23T08:44:03;100314.03;;;13.27;89.67
9325;BME280;4701;51.566;6.776;2023-04-23T08:47:09;100322.41;;;13.35;89.64
9325;BME280;4701;51.566;6.776;2023-04-23T08:50:17;100316.28;;;13.43;89.09
9325;BME280;4701;51.566;6.776;2023-04-23T08:53:20;100321.38;;;13.50;89.08
9325;BME280;4701;51.566;6.776;2023-04-23T08:56:23;100321.00;;;13.56;88.63
9325;BME280;4701;51.566;6.776;2023-04-23T08:59:25;100317.06;;;13.62;87.97
9325;BME280;4701;51.566;6.776;2023-04-23T09:02:27;100327.66;;;13.69;88.20
9325;BME280;4701;51.566;6.776;2023-04-23T09:05:31;100324.03;;;13.74;87.44
9325;BME280;4701;51.566;6.776;2023-04-23T09:08:33;100339.25;;;13.80;86.87
9325;BME280;4701;51.566;6.776;2023-04-23T09:11:35;100323.88;;;13.84;86.53
9325;BME280;4701;51.566;6.776;2023-04-23T09:14:37;100324.59;;;13.89;86.32
9325;BME280;4701;51.566;6.776;2023-04-23T09:17:41;100318.22;;;13.94;85.63
9325;BME280;4701;51.566;6.776;2023-04-23T09:20:44;100304.44;;;13.99;85.60
9325;BME280;4701;51.566;6.776;2023-04-23T09:23:49;100301.28;;;14.06;85.19
9325;BME280;4701;51.566;6.776;2023-04-23T09:26:52;100296.56;;;14.11;84.78
9325;BME280;4701;51.566;6.776;2023-04-23T09:29:54;100292.03;;;14.20;84.02
9325;BME280;4701;51.566;6.776;2023-04-23T09:32:57;100295.66;;;14.29;82.18
9325;BME280;4701;51.566;6.776;2023-04-23T09:36:04;100291.72;;;14.35;81.17
9325;BME280;4701;51.566;6.776;2023-04-23T09:39:11;100288.31;;;14.44;80.92
9325;BME280;4701;51.566;6.776;2023-04-23T09:42:14;100283.53;;;14.49;80.05
9325;BME280;4701;51.566;6.776;2023-04-23T09:45:16;100275.72;;;14.56;79.52
9325;BME280;4701;51.566;6.776;2023-04-23T09:48:19;100282.75;;;14.62;78.83
9325;BME280;4701;51.566;6.776;2023-04-23T09:51:23;100278.78;;;14.68;78.99
9325;BME280;4701;51.566;6.776;2023-04-23T09:54:26;100274.00;;;14.74;78.84
9325;BME280;4701;51.566;6.776;2023-04-23T09:57:28;100286.19;;;14.82;78.03
9325;BME280;4701;51.566;6.776;2023-04-23T10:00:34;100269.34;;;14.88;77.09
9325;BME280;4701;51.566;6.776;2023-04-23T10:03:41;100271.97;;;14.93;75.48
9325;BME280;4701;51.566;6.776;2023-04-23T10:06:44;100280.88;;;14.99;75.22
9325;BME280;4701;51.566;6.776;2023-04-23T10:09:46;100264.81;;;15.06;74.96
9325;BME280;4701;51.566;6.776;2023-04-23T10:12:50;100269.91;;;15.12;74.66
9325;BME280;4701;51.566;6.776;2023-04-23T10:15:53;100265.63;;;15.20;74.88
9325;BME280;4701;51.566;6.776;2023-04-23T10:18:58;100269.72;;;15.31;73.21
9325;BME280;4701;51.566;6.776;2023-04-23T10:22:04;100271.56;;;15.36;73.12
9325;BME280;4701;51.566;6.776;2023-04-23T10:25:09;100265.13;;;15.40;73.36
9325;BME280;4701;51.566;6.776;2023-04-23T10:28:13;100252.94;;;15.46;73.88
9325;BME280;4701;51.566;6.776;2023-04-23T10:31:18;100239.59;;;15.54;72.79
9325;BME280;4701;51.566;6.776;2023-04-23T10:34:20;100230.09;;;15.60;72.26
9325;BME280;4701;51.566;6.776;2023-04-23T10:37:27;100240.34;;;15.68;71.78
9325;BME280;4701;51.566;6.776;2023-04-23T10:40:31;100237.16;;;15.74;71.66
9325;BME280;4701;51.566;6.776;2023-04-23T10:43:34;100224.91;;;15.80;71.04
9325;BME280;4701;51.566;6.776;2023-04-23T10:46:36;100244.53;;;15.87;70.19
9325;BME280;4701;51.566;6.776;2023-04-23T10:49:38;100228.41;;;15.95;69.64
9325;BME280;4701;51.566;6.776;2023-04-23T10:52:43;100234.56;;;16.00;69.53
9325;BME280;4701;51.566;6.776;2023-04-23T10:55:46;100236.38;;;16.05;69.70
9325;BME280;4701;51.566;6.776;2023-04-23T10:58:48;100225.06;;;16.06;69.51
9325;BME280;4701;51.566;6.776;2023-04-23T11:01:51;100226.88;;;16.11;69.53
9325;BME280;4701;51.566;6.776;2023-04-23T11:04:54;100220.25;;;16.12;69.82
9325;BME280;4701;51.566;6.776;2023-04-23T11:08:05;100219.94;;;16.13;69.26
9325;BME280;4701;51.566;6.776;2023-04-23T11:11:07;100219.94;;;16.13;69.43
9325;BME280;4701;51.566;6.776;2023-04-23T11:14:10;100215.25;;;16.14;69.16
9325;BME280;4701;51.566;6.776;2023-04-23T11:17:15;100200.69;;;16.13;69.18
9325;BME280;4701;51.566;6.776;2023-04-23T11:20:18;100192.44;;;16.13;69.05
9325;BME280;4701;51.566;6.776;2023-04-23T11:23:30;100185.00;;;16.14;69.12
9325;BME280;4701;51.566;6.776;2023-04-23T11:26:33;100190.50;;;16.14;69.25
9325;BME280;4701;51.566;6.776;2023-04-23T11:29:37;100186.28;;;16.16;69.46
9325;BME280;4701;51.566;6.776;2023-04-23T11:32:40;100180.47;;;16.18;69.44
9325;BME280;4701;51.566;6.776;2023-04-23T11:35:42;100176.59;;;16.19;69.13
9325;BME280;4701;51.566;6.776;2023-04-23T11:38:45;100165.59;;;16.19;68.43
9325;BME280;4701;51.566;6.776;2023-04-23T11:41:47;100162.84;;;16.19;68.01
9325;BME280;4701;51.566;6.776;2023-04-23T11:44:49;100157.84;;;16.21;67.88
9325;BME280;4701;51.566;6.776;2023-04-23T11:47:52;100157.53;;;16.22;67.55
9325;BME280;4701;51.566;6.776;2023-04-23T11:50:55;100150.09;;;16.23;67.52
9325;BME280;4701;51.566;6.776;2023-04-23T11:54:03;100151.38;;;16.25;67.20
9325;BME280;4701;51.566;6.776;2023-04-23T11:57:05;100150.25;;;16.26;66.86
9325;BME280;4701;51.566;6.776;2023-04-23T12:00:13;100141.69;;;16.28;66.15
9325;BME280;4701;51.566;6.776;2023-04-23T12:03:15;100137.50;;;16.31;64.85
9325;BME280;4701;51.566;6.776;2023-04-23T12:06:17;100140.75;;;16.33;62.54
9325;BME280;4701;51.566;6.776;2023-04-23T12:09:22;100142.34;;;16.34;62.11
9325;BME280;4701;51.566;6.776;2023-04-23T12:12:31;100129.41;;;16.34;62.25
9325;BME280;4701;51.566;6.776;2023-04-23T12:15:43;100125.41;;;16.40;61.52
9325;BME280;4701;51.566;6.776;2023-04-23T12:18:45;100115.06;;;16.46;60.62
9325;BME280;4701;51.566;6.776;2023-04-23T12:21:48;100109.38;;;16.51;58.92
9325;BME280;4701;51.566;6.776;2023-04-23T12:24:52;100109.56;;;16.54;59.33
9325;BME280;4701;51.566;6.776;2023-04-23T12:27:58;100110.06;;;16.56;58.85
9325;BME280;4701;51.566;6.776;2023-04-23T12:31:01;100105.50;;;16.60;58.84
9325;BME280;4701;51.566;6.776;2023-04-23T12:34:04;100097.97;;;16.66;59.11
9325;BME280;4701;51.566;6.776;2023-04-23T12:37:06;100094.22;;;16.71;59.50
9325;BME280;4701;51.566;6.776;2023-04-23T12:40:10;100099.59;;;16.76;59.37
9325;BME280;4701;51.566;6.776;2023-04-23T12:43:12;100091.31;;;16.84;58.82
9325;BME280;4701;51.566;6.776;2023-04-23T12:46:14;100079.97;;;16.94;58.12
9325;BME280;4701;51.566;6.776;2023-04-23T12:49:15;100070.09;;;17.02;57.29
9325;BME280;4701;51.566;6.776;2023-04-23T12:52:17;100072.03;;;17.10;57.21
9325;BME280;4701;51.566;6.776;2023-04-23T12:55:20;100066.84;;;17.17;57.38
9325;BME280;4701;51.566;6.776;2023-04-23T12:58:22;100062.13;;;17.26;56.36
9325;BME280;4701;51.566;6.776;2023-04-23T13:01:25;100075.09;;;17.34;56.59
9325;BME280;4701;51.566;6.776;2023-04-23T13:04:28;100055.44;;;17.45;56.49
9325;BME280;4701;51.566;6.776;2023-04-23T13:07:30;100048.91;;;17.58;56.46
9325;BME280;4701;51.566;6.776;2023-04-23T13:10:33;100055.38;;;17.70;55.35
9325;BME280;4701;51.566;6.776;2023-04-23T13:13:35;100037.66;;;17.80;55.28
9325;BME280;4701;51.566;6.776;2023-04-23T13:16:37;100030.16;;;17.89;55.07
9325;BME280;4701;51.566;6.776;2023-04-23T13:19:39;100030.09;;;17.98;55.74
9325;BME280;4701;51.566;6.776;2023-04-23T13:22:44;100025.34;;;18.07;55.06
9325;BME280;4701;51.566;6.776;2023-04-23T13:25:47;100015.41;;;18.14;54.68
9325;BME280;4701;51.566;6.776;2023-04-23T13:28:49;100012.47;;;18.20;54.85
9325;BME280;4701;51.566;6.776;2023-04-23T13:31:51;100018.59;;;18.25;54.88
9325;BME280;4701;51.566;6.776;2023-04-23T13:34:53;99996.66;;;18.29;54.09
9325;BME280;4701;51.566;6.776;2023-04-23T13:37:55;100007.34;;;18.30;53.01
9325;BME280;4701;51.566;6.776;2023-04-23T13:40:58;100011.22;;;18.29;53.18
9325;BME280;4701;51.566;6.776;2023-04-23T13:44:00;100008.03;;;18.27;52.47
9325;BME280;4701;51.566;6.776;2023-04-23T13:47:02;99996.50;;;18.25;52.09
9325;BME280;4701;51.566;6.776;2023-04-23T13:50:04;99996.84;;;18.24;51.94
9325;BME280;4701;51.566;6.776;2023-04-23T13:53:07;99982.94;;;18.20;51.17
9325;BME280;4701;51.566;6.776;2023-04-23T13:56:11;99974.03;;;18.14;51.03
9325;BME280;4701;51.566;6.776;2023-04-23T13:59:13;99965.16;;;18.09;50.87
9325;BME280;4701;51.566;6.776;2023-04-23T14:02:15;99958.34;;;18.06;51.11
9325;BME280;4701;51.566;6.776;2023-04-23T14:05:17;99962.94;;;18.02;51.62
9325;BME280;4701;51.566;6.776;2023-04-23T14:08:19;99974.63;;;17.99;51.98
9325;BME280;4701;51.566;6.776;2023-04-23T14:11:22;99954.84;;;17.97;51.50
9325;BME280;4701;51.566;6.776;2023-04-23T14:14:24;99954.72;;;17.94;51.38
9325;BME280;4701;51.566;6.776;2023-04-23T14:17:26;99953.13;;;17.93;50.92
9325;BME280;4701;51.566;6.776;2023-04-23T14:20:28;99948.75;;;17.92;50.70
9325;BME280;4701;51.566;6.776;2023-04-23T14:23:44;99940.66;;;17.87;51.76
9325;BME280;4701;51.566;6.776;2023-04-23T14:26:51;99943.41;;;17.87;50.82
9325;BME280;4701;51.566;6.776;2023-04-23T14:29:56;99928.03;;;17.86;51.01
9325;BME280;4701;51.566;6.776;2023-04-23T14:32:59;99913.88;;;17.87;50.66
9325;BME280;4701;51.566;6.776;2023-04-23T14:36:01;99924.09;;;17.87;50.86
9325;BME280;4701;51.566;6.776;2023-04-23T14:39:04;99914.56;;;17.84;52.12
9325;BME280;4701;51.566;6.776;2023-04-23T14:42:07;99902.41;;;17.85;52.72
9325;BME280;4701;51.566;6.776;2023-04-23T14:45:09;99898.84;;;17.85;52.43
9325;BME280;4701;51.566;6.776;2023-04-23T14:48:11;99898.84;;;17.85;52.58
9325;BME280;4701;51.566;6.776;2023-04-23T14:51:16;99894.16;;;17.85;52.59
9325;BME280;4701;51.566;6.776;2023-04-23T14:54:18;99875.28;;;17.87;52.17
9325;BME280;4701;51.566;6.776;2023-04-23T14:57:21;99878.06;;;17.87;52.16
9325;BME280;4701;51.566;6.776;2023-04-23T15:00:23;99870.16;;;17.86;51.72
9325;BME280;4701;51.566;6.776;2023-04-23T15:03:25;99869.66;;;17.84;51.97
9325;BME280;4701;51.566;6.776;2023-04-23T15:06:27;99867.25;;;17.82;52.88
9325;BME280;4701;51.566;6.776;2023-04-23T15:09:29;99871.78;;;17.78;53.13
9325;BME280;4701;51.566;6.776;2023-04-23T15:12:47;99865.84;;;17.76;53.32
9325;BME280;4701;51.566;6.776;2023-04-23T15:15:54;99849.16;;;17.72;52.72
9325;BME280;4701;51.566;6.776;2023-04-23T15:19:00;99853.72;;;17.68;52.36
9325;BME280;4701;51.566;6.776;2023-04-23T15:22:02;99851.63;;;17.65;53.08
9325;BME280;4701;51.566;6.776;2023-04-23T15:25:05;99848.72;;;17.62;53.25
9325;BME280;4701;51.566;6.776;2023-04-23T15:28:08;99854.91;;;17.59;51.83
9325;BME280;4701;51.566;6.776;2023-04-23T15:31:10;99850.38;;;17.54;51.05
9325;BME280;4701;51.566;6.776;2023-04-23T15:34:12;99855.75;;;17.51;50.81
9325;BME280;4701;51.566;6.776;2023-04-23T15:37:14;99855.63;;;17.47;51.15
9325;BME280;4701;51.566;6.776;2023-04-23T15:40:18;99860.53;;;17.42;51.63
9325;BME280;4701;51.566;6.776;2023-04-23T15:43:22;99878.34;;;17.35;51.48
9325;BME280;4701;51.566;6.776;2023-04-23T15:46:24;99880.97;;;17.32;52.55
9325;BME280;4701;51.566;6.776;2023-04-23T15:49:26;99897.34;;;17.28;52.99
9325;BME280;4701;51.566;6.776;2023-04-23T15:52:28;99908.09;;;17.21;54.24
9325;BME280;4701;51.566;6.776;2023-04-23T15:55:30;99906.66;;;17.15;55.07
9325;BME280;4701;51.566;6.776;2023-04-23T15:58:34;99923.53;;;17.05;56.33
9325;BME280;4701;51.566;6.776;2023-04-23T16:01:36;99935.72;;;16.95;58.09
9325;BME280;4701;51.566;6.776;2023-04-23T16:04:38;99935.25;;;16.85;60.53
9325;BME280;4701;51.566;6.776;2023-04-23T16:07:41;99944.19;;;16.73;62.69
9325;BME280;4701;51.566;6.776;2023-04-23T16:10:43;99953.38;;;16.60;63.93
9325;BME280;4701;51.566;6.776;2023-04-23T16:13:47;99961.34;;;16.44;64.71
9325;BME280;4701;51.566;6.776;2023-04-23T16:16:49;99957.16;;;16.30;65.52
9325;BME280;4701;51.566;6.776;2023-04-23T16:19:51;99953.75;;;16.15;66.57
9325;BME280;4701;51.566;6.776;2023-04-23T16:22:52;99944.81;;;16.01;67.32
9325;BME280;4701;51.566;6.776;2023-04-23T16:25:54;99949.34;;;15.88;68.07
9325;BME280;4701;51.566;6.776;2023-04-23T16:28:58;99938.66;;;15.78;68.93
9325;BME280;4701;51.566;6.776;2023-04-23T16:32:00;99916.16;;;15.68;69.33
9325;BME280;4701;51.566;6.776;2023-04-23T16:35:02;99903.53;;;15.58;70.11
9325;BME280;4701;51.566;6.776;2023-04-23T16:38:04;99886.53;;;15.47;70.27
9325;BME280;4701;51.566;6.776;2023-04-23T16:41:10;99885.72;;;15.38;70.77
9325;BME280;4701;51.566;6.776;2023-04-23T16:44:16;99877.59;;;15.33;71.49
9325;BME280;4701;51.566;6.776;2023-04-23T16:47:18;99876.97;;;15.28;71.79
9325;BME280;4701;51.566;6.776;2023-04-23T16:50:20;99876.78;;;15.24;72.14
9325;BME280;4701;51.566;6.776;2023-04-23T16:53:22;99874.69;;;15.21;72.28
9325;BME280;4701;51.566;6.776;2023-04-23T16:56:24;99869.00;;;15.18;72.71
9325;BME280;4701;51.566;6.776;2023-04-23T16:59:27;99857.53;;;15.15;73.29
9325;BME280;4701;51.566;6.776;2023-04-23T17:02:29;99848.03;;;15.13;73.53
9325;BME280;4701;51.566;6.776;2023-04-23T17:05:33;99838.16;;;15.12;73.61
9325;BME280;4701;51.566;6.776;2023-04-23T17:08:35;99822.00;;;15.10;73.61
9325;BME280;4701;51.566;6.776;2023-04-23T17:11:37;99808.59;;;15.09;73.94
9325;BME280;4701;51.566;6.776;2023-04-23T17:14:40;99804.22;;;15.08;74.08
9325;BME280;4701;51.566;6.776;2023-04-23T17:17:42;99778.72;;;15.07;74.79
9325;BME280;4701;51.566;6.776;2023-04-23T17:20:44;99767.75;;;15.07;75.56
9325;BME280;4701;51.566;6.776;2023-04-23T17:23:46;99763.38;;;15.06;75.78
9325;BME280;4701;51.566;6.776;2023-04-23T17:26:48;99785.19;;;15.03;75.64
9325;BME280;4701;51.566;6.776;2023-04-23T17:29:51;99792.91;;;15.01;76.15
9325;BME280;4701;51.566;6.776;2023-04-23T17:32:53;99791.16;;;14.96;76.36
9325;BME280;4701;51.566;6.776;2023-04-23T17:35:55;99780.00;;;14.93;76.47
9325;BME280;4701;51.566;6.776;2023-04-23T17:39:01;99776.25;;;14.89;76.97
9325;BME280;4701;51.566;6.776;2023-04-23T17:42:08;99767.06;;;14.85;76.82
9325;BME280;4701;51.566;6.776;2023-04-23T17:45:17;99762.84;;;14.79;76.42
9325;BME280;4701;51.566;6.776;2023-04-23T17:48:22;99752.50;;;14.75;76.80
9325;BME280;4701;51.566;6.776;2023-04-23T17:51:25;99746.81;;;14.72;76.31
9325;BME280;4701;51.566;6.776;2023-04-23T17:54:31;99746.69;;;14.68;76.00
9325;BME280;4701;51.566;6.776;2023-04-23T17:57:36;99745.06;;;14.67;76.37
9325;BME280;4701;51.566;6.776;2023-04-23T18:00:41;99739.06;;;14.65;76.62
9325;BME280;4701;51.566;6.776;2023-04-23T18:03:43;99734.25;;;14.62;76.85
9325;BME280;4701;51.566;6.776;2023-04-23T18:06:50;99730.19;;;14.60;76.85
9325;BME280;4701;51.566;6.776;2023-04-23T18:09:53;99717.91;;;14.57;77.27
9325;BME280;4701;51.566;6.776;2023-04-23T18:12:55;99719.84;;;14.57;77.40
9325;BME280;4701;51.566;6.776;2023-04-23T18:15:58;99711.13;;;14.55;77.82
9325;BME280;4701;51.566;6.776;2023-04-23T18:19:00;99726.00;;;14.54;77.94
9325;BME280;4701;51.566;6.776;2023-04-23T18:22:03;99715.63;;;14.51;78.25
9325;BME280;4701;51.566;6.776;2023-04-23T18:25:07;99714.34;;;14.48;78.32
9325;BME280;4701;51.566;6.776;2023-04-23T18:28:10;99715.47;;;14.47;78.14
9325;BME280;4701;51.566;6.776;2023-04-23T18:31:30;99710.63;;;14.44;77.99
9325;BME280;4701;51.566;6.776;2023-04-23T18:34:41;99705.75;;;14.41;78.13
9325;BME280;4701;51.566;6.776;2023-04-23T18:37:47;99701.72;;;14.38;78.10
9325;BME280;4701;51.566;6.776;2023-04-23T18:40:53;99703.97;;;14.36;77.99
9325;BME280;4701;51.566;6.776;2023-04-23T18:43:55;99697.16;;;14.34;78.22
9325;BME280;4701;51.566;6.776;2023-04-23T18:47:00;99700.22;;;14.32;78.08
9325;BME280;4701;51.566;6.776;2023-04-23T18:50:08;99698.09;;;14.29;78.28
9325;BME280;4701;51.566;6.776;2023-04-23T18:53:11;99691.34;;;14.27;78.17
9325;BME280;4701;51.566;6.776;2023-04-23T18:56:13;99697.13;;;14.25;78.07
9325;BME280;4701;51.566;6.776;2023-04-23T18:59:15;99691.97;;;14.24;78.41
9325;BME280;4701;51.566;6.776;2023-04-23T19:02:19;99681.63;;;14.21;78.14
9325;BME280;4701;51.566;6.776;2023-04-23T19:05:21;99683.09;;;14.18;77.92
9325;BME280;4701;51.566;6.776;2023-04-23T19:08:23;99681.47;;;14.17;78.20
9325;BME280;4701;51.566;6.776;2023-04-23T19:11:28;99689.19;;;14.15;78.28
9325;BME280;4701;51.566;6.776;2023-04-23T19:14:34;99689.50;;;14.14;78.79
9325;BME280;4701;51.566;6.776;2023-04-23T19:17:37;99686.75;;;14.14;78.71
9325;BME280;4701;51.566;6.776;2023-04-23T19:20:39;99679.19;;;14.11;79.28
9325;BME280;4701;51.566;6.776;2023-04-23T19:23:41;99675.94;;;14.09;79.32
9325;BME280;4701;51.566;6.776;2023-04-23T19:26:43;99672.69;;;14.07;79.42
9325;BME280;4701;51.566;6.776;2023-04-23T19:29:45;99670.28;;;14.05;79.44
9325;BME280;4701;51.566;6.776;2023-04-23T19:32:49;99665.44;;;14.02;79.75
9325;BME280;4701;51.566;6.776;2023-04-23T19:35:51;99665.75;;;14.00;79.44
9325;BME280;4701;51.566;6.776;2023-04-23T19:38:52;99671.84;;;13.97;79.92
9325;BME280;4701;51.566;6.776;2023-04-23T19:41:55;99665.88;;;13.95;80.18
9325;BME280;4701;51.566;6.776;2023-04-23T19:44:56;99663.47;;;13.94;80.28
9325;BME280;4701;51.566;6.776;2023-04-23T19:48:00;99660.53;;;13.90;80.54
9325;BME280;4701;51.566;6.776;2023-04-23T19:51:03;99651.81;;;13.88;80.72
9325;BME280;4701;51.566;6.776;2023-04-23T19:54:05;99659.22;;;13.88;81.09
9325;BME280;4701;51.566;6.776;2023-04-23T19:57:07;99667.78;;;13.86;80.97
9325;BME280;4701;51.566;6.776;2023-04-23T20:00:10;99670.34;;;13.83;81.22
9325;BME280;4701;51.566;6.776;2023-04-23T20:03:15;99677.22;;;13.80;81.55
9325;BME280;4701;51.566;6.776;2023-04-23T20:06:16;99678.34;;;13.79;82.00
9325;BME280;4701;51.566;6.776;2023-04-23T20:09:18;99688.34;;;13.75;81.70
9325;BME280;4701;51.566;6.776;2023-04-23T20:12:22;99693.09;;;13.70;81.98
9325;BME280;4701;51.566;6.776;2023-04-23T20:15:25;99691.13;;;13.61;81.32
9325;BME280;4701;51.566;6.776;2023-04-23T20:18:28;99684.97;;;13.56;80.49
9325;BME280;4701;51.566;6.776;2023-04-23T20:21:33;99685.13;;;13.51;79.87
9325;BME280;4701;51.566;6.776;2023-04-23T20:24:36;99707.75;;;13.43;78.30
9325;BME280;4701;51.566;6.776;2023-04-23T20:27:39;99703.84;;;13.35;77.50
9325;BME280;4701;51.566;6.776;2023-04-23T20:30:41;99712.97;;;13.31;77.25
9325;BME280;4701;51.566;6.776;2023-04-23T20:33:45;99715.84;;;13.25;76.21
9325;BME280;4701;51.566;6.776;2023-04-23T20:36:47;99724.44;;;13.19;75.41
9325;BME280;4701;51.566;6.776;2023-04-23T20:39:50;99725.16;;;13.11;75.02
9325;BME280;4701;51.566;6.776;2023-04-23T20:42:52;99740.88;;;13.05;75.18
9325;BME280;4701;51.566;6.776;2023-04-23T20:45:54;99742.91;;;13.00;75.18
9325;BME280;4701;51.566;6.776;2023-04-23T20:48:57;99734.00;;;12.94;75.54
9325;BME280;4701;51.566;6.776;2023-04-23T20:52:00;99739.06;;;12.87;76.23
9325;BME280;4701;51.566;6.776;2023-04-23T20:55:02;99740.00;;;12.82;76.53
9325;BME280;4701;51.566;6.776;2023-04-23T20:58:04;99747.31;;;12.73;77.24
